createdAt,value
2024-04-16T00:00:46.567Z,7.99
2024-04-16T00:01:46.698Z,7.99
2024-04-16T00:02:46.591Z,8.00
2024-04-16T00:03:46.539Z,8.02
2024-04-16T00:04:46.591Z,8.00
2024-04-16T00:05:46.518Z,7.93
2024-04-16T00:06:46.495Z,7.93
2024-04-16T00:07:46.521Z,7.93
2024-04-16T00:08:46.481Z,7.94
2024-04-16T00:09:46.463Z,7.94
2024-04-16T00:10:46.624Z,7.93
2024-04-16T00:11:46.483Z,7.96
2024-04-16T00:12:46.465Z,7.93
2024-04-16T00:13:46.459Z,7.94
2024-04-16T00:14:47.362Z,7.90
2024-04-16T00:15:46.398Z,7.90
2024-04-16T00:16:46.426Z,7.92
2024-04-16T00:17:46.543Z,7.90
2024-04-16T00:18:46.380Z,7.92
2024-04-16T00:19:46.371Z,7.92
2024-04-16T00:20:46.344Z,7.94
2024-04-16T00:21:46.346Z,7.94
2024-04-16T00:22:46.326Z,7.93
2024-04-16T00:23:46.336Z,7.94
2024-04-16T00:24:46.315Z,7.96
2024-04-16T00:25:46.275Z,7.92
2024-04-16T00:26:46.275Z,7.92
2024-04-16T00:27:46.290Z,7.89
2024-04-16T00:28:46.284Z,7.87
2024-04-16T00:29:46.235Z,7.90
2024-04-16T00:30:46.257Z,7.90
2024-04-16T00:31:46.255Z,7.90
2024-04-16T00:32:46.352Z,7.89
2024-04-16T00:33:46.227Z,7.87
2024-04-16T00:34:46.889Z,7.89
2024-04-16T00:35:46.177Z,7.85
2024-04-16T00:36:46.176Z,7.87
2024-04-16T00:37:46.178Z,7.85
2024-04-16T00:38:46.152Z,7.84
2024-04-16T00:39:46.135Z,7.82
2024-04-16T00:40:46.121Z,7.81
2024-04-16T00:41:46.125Z,7.79
2024-04-16T00:42:46.102Z,7.77
2024-04-16T00:43:46.102Z,7.74
2024-04-16T00:44:46.097Z,7.75
2024-04-16T00:45:46.066Z,7.78
2024-04-16T00:46:46.138Z,7.79
2024-04-16T00:47:46.118Z,7.79
2024-04-16T00:48:46.067Z,7.81
2024-04-16T00:49:46.045Z,7.79
2024-04-16T00:50:46.009Z,7.81
2024-04-16T00:51:46.020Z,7.82
2024-04-16T00:52:46.000Z,7.81
2024-04-16T00:53:45.993Z,7.84
2024-04-16T00:54:46.966Z,7.82
2024-04-16T00:55:46.002Z,7.81
2024-04-16T00:56:45.990Z,7.78
2024-04-16T00:57:45.920Z,7.77
2024-04-16T00:58:45.943Z,7.77
2024-04-16T00:59:45.960Z,7.77
2024-04-16T01:00:45.917Z,7.74
2024-04-16T01:01:45.973Z,7.72
2024-04-16T01:02:45.986Z,7.72
2024-04-16T01:03:45.890Z,7.75
2024-04-16T01:04:45.947Z,7.77
2024-04-16T01:05:45.845Z,7.78
2024-04-16T01:06:45.883Z,7.78
2024-04-16T01:07:45.831Z,7.78
2024-04-16T01:08:45.811Z,7.79
2024-04-16T01:09:45.810Z,7.81
2024-04-16T01:10:45.893Z,7.82
2024-04-16T01:11:45.781Z,7.87
2024-04-16T01:12:45.773Z,7.87
2024-04-16T01:13:45.754Z,7.87
2024-04-16T01:14:45.762Z,7.87
2024-04-16T01:15:45.759Z,7.89
2024-04-16T01:16:45.708Z,7.90
2024-04-16T01:17:45.830Z,7.93
2024-04-16T01:18:45.700Z,7.93
2024-04-16T01:19:45.705Z,7.94
2024-04-16T01:20:45.686Z,7.97
2024-04-16T01:21:45.672Z,7.99
2024-04-16T01:22:45.718Z,7.97
2024-04-16T01:23:45.644Z,7.99
2024-04-16T01:24:45.617Z,7.99
2024-04-16T01:25:45.644Z,7.99
2024-04-16T01:26:45.622Z,7.97
2024-04-16T01:27:45.597Z,7.97
2024-04-16T01:28:45.602Z,7.94
2024-04-16T01:29:45.563Z,7.94
2024-04-16T01:30:45.622Z,7.93
2024-04-16T01:31:45.644Z,7.94
2024-04-16T01:32:45.588Z,7.94
2024-04-16T01:33:45.531Z,7.99
2024-04-16T01:34:45.532Z,7.97
2024-04-16T01:35:45.541Z,7.99
2024-04-16T01:36:45.540Z,8.02
2024-04-16T01:37:45.492Z,8.03
2024-04-16T01:38:45.461Z,8.04
2024-04-16T01:39:45.481Z,8.04
2024-04-16T01:40:45.513Z,8.08
2024-04-16T01:41:45.462Z,8.08
2024-04-16T01:42:45.431Z,8.10
2024-04-16T01:43:45.444Z,8.12
2024-04-16T01:44:45.412Z,8.14
2024-04-16T01:45:45.441Z,8.12
2024-04-16T01:46:45.381Z,8.12
2024-04-16T01:47:45.409Z,8.12
2024-04-16T01:48:45.374Z,8.11
2024-04-16T01:49:45.377Z,8.12
2024-04-16T01:50:45.364Z,8.11
2024-04-16T01:51:45.544Z,8.10
2024-04-16T01:52:45.323Z,8.10
2024-04-16T01:53:45.325Z,8.10
2024-04-16T01:54:45.323Z,8.04
2024-04-16T01:55:45.286Z,8.04
2024-04-16T01:56:45.315Z,8.07
2024-04-16T01:57:45.267Z,8.04
2024-04-16T01:58:45.298Z,8.04
2024-04-16T01:59:45.234Z,8.03
2024-04-16T02:00:45.285Z,8.03
2024-04-16T02:01:45.372Z,8.02
2024-04-16T02:02:45.234Z,8.02
2024-04-16T02:03:45.217Z,8.02
2024-04-16T02:04:45.239Z,8.02
2024-04-16T02:05:45.186Z,7.99
2024-04-16T02:06:45.205Z,7.99
2024-04-16T02:07:45.280Z,7.97
2024-04-16T02:08:45.140Z,7.97
2024-04-16T02:09:45.167Z,7.96
2024-04-16T02:10:45.144Z,7.97
2024-04-16T02:11:45.180Z,7.97
2024-04-16T02:12:45.107Z,8.00
2024-04-16T02:13:45.081Z,8.00
2024-04-16T02:14:45.081Z,8.02
2024-04-16T02:15:45.074Z,8.02
2024-04-16T02:16:45.087Z,8.04
2024-04-16T02:17:45.130Z,8.04
2024-04-16T02:18:45.144Z,8.07
2024-04-16T02:19:45.018Z,8.08
2024-04-16T02:20:45.013Z,8.08
2024-04-16T02:21:45.020Z,8.08
2024-04-16T02:22:45.038Z,8.08
2024-04-16T02:23:44.960Z,8.08
2024-04-16T02:24:44.990Z,8.08
2024-04-16T02:25:44.968Z,8.11
2024-04-16T02:26:44.958Z,8.11
2024-04-16T02:27:44.957Z,8.10
2024-04-16T02:28:44.929Z,8.11
2024-04-16T02:29:44.910Z,8.11
2024-04-16T02:30:44.943Z,8.10
2024-04-16T02:31:44.982Z,8.07
2024-04-16T02:32:44.910Z,8.08
2024-04-16T02:33:44.860Z,8.07
2024-04-16T02:34:45.505Z,8.07
2024-04-16T02:35:44.847Z,8.07
2024-04-16T02:36:44.841Z,8.07
2024-04-16T02:37:44.838Z,8.07
2024-04-16T02:38:44.813Z,8.07
2024-04-16T02:39:44.820Z,8.08
2024-04-16T02:40:44.878Z,8.08
2024-04-16T02:41:44.767Z,8.08
2024-04-16T02:42:44.762Z,8.03
2024-04-16T02:43:44.789Z,8.00
2024-04-16T02:44:44.754Z,7.97
2024-04-16T02:45:44.730Z,7.94
2024-04-16T02:46:44.721Z,7.93
2024-04-16T02:47:44.873Z,7.89
2024-04-16T02:48:44.736Z,7.89
2024-04-16T02:49:44.687Z,7.85
2024-04-16T02:50:44.682Z,7.84
2024-04-16T02:51:44.664Z,7.81
2024-04-16T02:52:44.644Z,7.79
2024-04-16T02:53:44.670Z,7.75
2024-04-16T02:54:44.676Z,7.74
2024-04-16T02:55:44.626Z,7.72
2024-04-16T02:56:44.611Z,7.71
2024-04-16T02:57:44.631Z,7.69
2024-04-16T02:58:44.621Z,7.72
2024-04-16T02:59:44.565Z,7.67
2024-04-16T03:00:44.598Z,7.69
2024-04-16T03:01:44.587Z,7.69
2024-04-16T03:02:44.566Z,7.71
2024-04-16T03:03:44.588Z,7.71
2024-04-16T03:04:44.530Z,7.71
2024-04-16T03:05:44.515Z,7.67
2024-04-16T03:06:44.526Z,7.71
2024-04-16T03:07:44.475Z,7.69
2024-04-16T03:08:44.496Z,7.67
2024-04-16T03:09:44.464Z,7.66
2024-04-16T03:10:44.569Z,7.63
2024-04-16T03:11:44.485Z,7.60
2024-04-16T03:12:44.451Z,7.59
2024-04-16T03:13:44.494Z,7.55
2024-04-16T03:14:44.411Z,7.56
2024-04-16T03:15:45.405Z,7.56
2024-04-16T03:16:44.597Z,7.55
2024-04-16T03:17:44.442Z,7.53
2024-04-16T03:18:44.364Z,7.55
2024-04-16T03:19:44.370Z,7.55
2024-04-16T03:20:44.418Z,7.56
2024-04-16T03:21:44.323Z,7.55
2024-04-16T03:22:44.305Z,7.55
2024-04-16T03:23:44.318Z,7.52
2024-04-16T03:24:44.337Z,7.52
2024-04-16T03:25:44.383Z,7.52
2024-04-16T03:26:44.292Z,7.53
2024-04-16T03:27:44.327Z,7.52
2024-04-16T03:28:44.247Z,7.53
2024-04-16T03:29:44.253Z,7.50
2024-04-16T03:30:44.225Z,7.47
2024-04-16T03:31:44.315Z,7.45
2024-04-16T03:32:44.229Z,7.44
2024-04-16T03:33:44.240Z,7.45
2024-04-16T03:34:44.221Z,7.44
2024-04-16T03:35:44.206Z,7.47
2024-04-16T03:36:44.196Z,7.47
2024-04-16T03:37:44.178Z,7.52
2024-04-16T03:38:44.162Z,7.49
2024-04-16T03:39:44.140Z,7.49
2024-04-16T03:40:44.180Z,7.47
2024-04-16T03:41:44.107Z,7.47
2024-04-16T03:42:44.141Z,7.42
2024-04-16T03:43:44.118Z,7.44
2024-04-16T03:44:44.059Z,7.44
2024-04-16T03:45:44.090Z,7.44
2024-04-16T03:46:44.114Z,7.42
2024-04-16T03:47:44.096Z,7.44
2024-04-16T03:48:44.029Z,7.44
2024-04-16T03:49:44.032Z,7.45
2024-04-16T03:50:44.036Z,7.45
2024-04-16T03:51:43.988Z,7.47
2024-04-16T03:52:44.107Z,7.49
2024-04-16T03:53:43.989Z,7.49
2024-04-16T03:54:43.960Z,7.50
2024-04-16T03:55:44.047Z,7.50
2024-04-16T03:56:43.961Z,7.50
2024-04-16T03:57:43.928Z,7.49
2024-04-16T03:58:43.919Z,7.49
2024-04-16T03:59:43.909Z,7.49
2024-04-16T04:00:43.920Z,7.50
2024-04-16T04:01:44.132Z,7.52
2024-04-16T04:02:43.873Z,7.52
2024-04-16T04:03:43.892Z,7.52
2024-04-16T04:04:43.942Z,7.52
2024-04-16T04:05:43.840Z,7.52
2024-04-16T04:06:43.853Z,7.50
2024-04-16T04:07:43.841Z,7.52
2024-04-16T04:08:43.816Z,7.50
2024-04-16T04:09:43.797Z,7.49
2024-04-16T04:10:43.808Z,7.49
2024-04-16T04:11:43.804Z,7.47
2024-04-16T04:12:43.762Z,7.47
2024-04-16T04:13:43.790Z,7.44
2024-04-16T04:14:44.358Z,7.44
2024-04-16T04:15:43.782Z,7.42
2024-04-16T04:16:43.789Z,7.41
2024-04-16T04:17:43.948Z,7.38
2024-04-16T04:18:43.692Z,7.38
2024-04-16T04:19:43.741Z,7.35
2024-04-16T04:20:43.655Z,7.31
2024-04-16T04:21:43.700Z,7.24
2024-04-16T04:22:43.985Z,7.23
2024-04-16T04:23:43.670Z,7.23
2024-04-16T04:24:43.650Z,7.24
2024-04-16T04:25:43.681Z,7.26
2024-04-16T04:26:43.601Z,7.26
2024-04-16T04:27:43.608Z,7.26
2024-04-16T04:28:43.600Z,7.27
2024-04-16T04:29:43.567Z,7.29
2024-04-16T04:30:43.560Z,7.29
2024-04-16T04:31:43.615Z,7.31
2024-04-16T04:32:43.598Z,7.34
2024-04-16T04:33:43.545Z,7.35
2024-04-16T04:34:43.614Z,7.38
2024-04-16T04:35:43.519Z,7.38
2024-04-16T04:36:43.532Z,7.41
2024-04-16T04:37:43.631Z,7.44
2024-04-16T04:38:43.475Z,7.45
2024-04-16T04:39:43.468Z,7.45
2024-04-16T04:40:43.467Z,7.45
2024-04-16T04:41:43.444Z,7.45
2024-04-16T04:42:43.469Z,7.47
2024-04-16T04:43:43.519Z,7.44
2024-04-16T04:44:43.392Z,7.40
2024-04-16T04:45:43.431Z,7.40
2024-04-16T04:46:43.389Z,7.40
2024-04-16T04:47:43.478Z,7.42
2024-04-16T04:48:43.362Z,7.42
2024-04-16T04:49:43.368Z,7.42
2024-04-16T04:50:44.981Z,7.41
2024-04-16T04:51:43.325Z,7.40
2024-04-16T04:52:43.347Z,7.40
2024-04-16T04:53:43.349Z,7.38
2024-04-16T04:54:43.283Z,7.31
2024-04-16T04:55:43.322Z,7.31
2024-04-16T04:56:43.290Z,7.31
2024-04-16T04:57:43.275Z,7.27
2024-04-16T04:58:43.360Z,7.24
2024-04-16T04:59:43.277Z,7.26
2024-04-16T05:00:43.309Z,7.26
2024-04-16T05:01:43.269Z,7.24
2024-04-16T05:02:43.283Z,7.24
2024-04-16T05:03:43.244Z,7.27
2024-04-16T05:04:43.226Z,7.26
2024-04-16T05:05:43.179Z,7.23
2024-04-16T05:06:43.205Z,7.23
2024-04-16T05:07:43.180Z,7.23
2024-04-16T05:08:44.825Z,7.26
2024-04-16T05:09:43.180Z,7.27
2024-04-16T05:10:43.401Z,7.27
2024-04-16T05:11:43.119Z,7.29
2024-04-16T05:12:43.086Z,7.31
2024-04-16T05:13:43.237Z,7.34
2024-04-16T05:14:43.091Z,7.34
2024-04-16T05:15:43.082Z,7.37
2024-04-16T05:16:43.107Z,7.35
2024-04-16T05:17:43.074Z,7.37
2024-04-16T05:18:43.129Z,7.35
2024-04-16T05:19:43.093Z,7.38
2024-04-16T05:20:43.048Z,7.38
2024-04-16T05:21:43.908Z,7.44
2024-04-16T05:22:43.093Z,7.47
2024-04-16T05:23:42.962Z,7.41
2024-04-16T05:24:42.988Z,7.40
2024-04-16T05:25:43.047Z,7.42
2024-04-16T05:26:42.953Z,7.42
2024-04-16T05:27:42.944Z,7.47
2024-04-16T05:28:42.955Z,7.52
2024-04-16T05:29:42.908Z,7.56
2024-04-16T05:30:42.927Z,7.58
2024-04-16T05:31:42.923Z,7.56
2024-04-16T05:32:42.990Z,7.56
2024-04-16T05:33:42.901Z,7.59
2024-04-16T05:34:42.938Z,7.60
2024-04-16T05:35:42.827Z,7.58
2024-04-16T05:36:42.822Z,7.53
2024-04-16T05:37:42.844Z,7.56
2024-04-16T05:38:42.807Z,7.55
2024-04-16T05:39:42.799Z,7.58
2024-04-16T05:40:42.863Z,7.53
2024-04-16T05:41:42.789Z,7.53
2024-04-16T05:42:42.792Z,7.52
2024-04-16T05:43:42.834Z,7.52
2024-04-16T05:44:42.749Z,7.50
2024-04-16T05:45:42.764Z,7.49
2024-04-16T05:46:42.784Z,7.45
2024-04-16T05:47:42.766Z,7.47
2024-04-16T05:48:42.712Z,7.45
2024-04-16T05:49:42.810Z,7.45
2024-04-16T05:50:42.694Z,7.42
2024-04-16T05:51:42.661Z,7.44
2024-04-16T05:52:42.718Z,7.45
2024-04-16T05:53:42.662Z,7.47
2024-04-16T05:54:42.617Z,7.50
2024-04-16T05:55:42.686Z,7.55
2024-04-16T05:56:42.603Z,7.59
2024-04-16T05:57:42.606Z,7.62
2024-04-16T05:58:42.592Z,7.60
2024-04-16T05:59:42.582Z,7.63
2024-04-16T06:00:42.625Z,7.63
2024-04-16T06:01:42.636Z,7.66
2024-04-16T06:02:42.579Z,7.63
2024-04-16T06:03:42.595Z,7.66
2024-04-16T06:04:42.538Z,7.66
2024-04-16T06:05:42.531Z,7.63
2024-04-16T06:06:42.491Z,7.66
2024-04-16T06:07:42.553Z,7.69
2024-04-16T06:08:42.464Z,7.72
2024-04-16T06:09:42.451Z,7.71
2024-04-16T06:10:42.620Z,7.69
2024-04-16T06:11:42.500Z,7.69
2024-04-16T06:12:42.418Z,7.69
2024-04-16T06:13:44.698Z,7.66
2024-04-16T06:14:42.392Z,7.67
2024-04-16T06:15:42.440Z,7.71
2024-04-16T06:16:42.427Z,7.69
2024-04-16T06:17:42.474Z,7.71
2024-04-16T06:18:42.366Z,7.74
2024-04-16T06:19:42.361Z,7.75
2024-04-16T06:20:42.329Z,7.78
2024-04-16T06:21:42.373Z,7.77
2024-04-16T06:22:42.346Z,7.74
2024-04-16T06:23:42.320Z,7.69
2024-04-16T06:24:42.288Z,7.71
2024-04-16T06:25:42.452Z,7.72
2024-04-16T06:26:42.289Z,7.74
2024-04-16T06:27:42.262Z,7.78
2024-04-16T06:28:42.306Z,7.78
2024-04-16T06:29:42.254Z,7.78
2024-04-16T06:30:42.249Z,7.81
2024-04-16T06:31:42.414Z,7.82
2024-04-16T06:32:42.223Z,7.82
2024-04-16T06:33:42.203Z,7.87
2024-04-16T06:34:42.263Z,7.90
2024-04-16T06:35:42.185Z,7.92
2024-04-16T06:36:44.399Z,7.90
2024-04-16T06:37:42.231Z,7.92
2024-04-16T06:38:42.143Z,7.92
2024-04-16T06:39:42.120Z,7.90
2024-04-16T06:40:42.164Z,7.92
2024-04-16T06:41:42.118Z,7.97
2024-04-16T06:42:42.097Z,8.00
2024-04-16T06:43:42.120Z,8.02
2024-04-16T06:44:42.060Z,8.03
2024-04-16T06:45:43.733Z,8.02
2024-04-16T06:46:42.077Z,8.00
2024-04-16T06:47:42.084Z,7.97
2024-04-16T06:48:42.133Z,7.97
2024-04-16T06:49:42.104Z,7.99
2024-04-16T06:50:42.025Z,8.00
2024-04-16T06:51:41.997Z,8.00
2024-04-16T06:52:42.021Z,8.03
2024-04-16T06:53:42.013Z,8.08
2024-04-16T06:54:41.960Z,8.11
2024-04-16T06:55:42.044Z,8.15
2024-04-16T06:56:41.951Z,8.15
2024-04-16T06:57:41.952Z,8.17
2024-04-16T06:58:41.997Z,8.15
2024-04-16T06:59:41.924Z,8.15
2024-04-16T07:00:41.935Z,8.14
2024-04-16T07:01:42.268Z,8.12
2024-04-16T07:02:41.985Z,8.11
2024-04-16T07:03:41.947Z,8.07
2024-04-16T07:04:41.900Z,8.03
2024-04-16T07:05:41.844Z,7.99
2024-04-16T07:06:41.865Z,7.94
2024-04-16T07:07:41.845Z,7.96
2024-04-16T07:08:41.816Z,7.97
2024-04-16T07:09:41.836Z,8.00
2024-04-16T07:10:41.847Z,8.03
2024-04-16T07:11:41.849Z,8.02
2024-04-16T07:12:41.750Z,7.99
2024-04-16T07:13:41.902Z,7.92
2024-04-16T07:14:41.726Z,7.89
2024-04-16T07:15:41.745Z,7.93
2024-04-16T07:16:41.763Z,7.94
2024-04-16T07:17:41.821Z,7.94
2024-04-16T07:18:41.821Z,7.94
2024-04-16T07:19:41.742Z,7.97
2024-04-16T07:20:41.658Z,7.96
2024-04-16T07:21:41.657Z,7.93
2024-04-16T07:22:41.703Z,7.89
2024-04-16T07:23:41.659Z,7.81
2024-04-16T07:24:41.656Z,7.79
2024-04-16T07:25:41.716Z,7.84
2024-04-16T07:26:41.616Z,7.87
2024-04-16T07:27:41.577Z,7.82
2024-04-16T07:28:41.637Z,7.81
2024-04-16T07:29:41.588Z,7.79
2024-04-16T07:30:41.551Z,7.82
2024-04-16T07:31:45.324Z,7.84
2024-04-16T07:32:42.668Z,7.84
2024-04-16T07:33:41.718Z,7.82
2024-04-16T07:34:41.606Z,7.79
2024-04-16T07:35:41.496Z,7.79
2024-04-16T07:36:41.485Z,7.75
2024-04-16T07:37:41.494Z,7.75
2024-04-16T07:38:41.469Z,7.75
2024-04-16T07:39:41.646Z,7.78
2024-04-16T07:40:41.475Z,7.81
2024-04-16T07:41:41.470Z,7.84
2024-04-16T07:42:43.101Z,7.89
2024-04-16T07:43:41.438Z,7.93
2024-04-16T07:44:41.430Z,7.96
2024-04-16T07:45:41.434Z,8.00
2024-04-16T07:46:41.497Z,8.08
2024-04-16T07:47:41.475Z,8.15
2024-04-16T07:48:41.405Z,8.22
2024-04-16T07:49:41.447Z,8.33
2024-04-16T07:50:41.324Z,8.42
2024-04-16T07:51:41.314Z,8.48
2024-04-16T07:52:41.344Z,8.58
2024-04-16T07:53:41.309Z,8.78
2024-04-16T07:54:41.335Z,8.91
2024-04-16T07:55:41.383Z,8.88
2024-04-16T07:56:41.263Z,8.87
2024-04-16T07:57:41.246Z,8.97
2024-04-16T07:58:41.273Z,9.01
2024-04-16T07:59:41.255Z,9.06
2024-04-16T08:00:41.243Z,9.12
2024-04-16T08:01:41.352Z,9.12
2024-04-16T08:02:41.239Z,9.15
2024-04-16T08:03:41.199Z,9.16
2024-04-16T08:04:41.361Z,9.10
2024-04-16T08:05:41.184Z,9.02
2024-04-16T08:06:41.185Z,8.99
2024-04-16T08:07:41.162Z,9.05
2024-04-16T08:08:41.153Z,9.21
2024-04-16T08:09:41.127Z,9.38
2024-04-16T08:10:41.295Z,9.48
2024-04-16T08:11:41.153Z,9.57
2024-04-16T08:12:41.135Z,9.50
2024-04-16T08:13:41.561Z,9.35
2024-04-16T08:14:41.238Z,9.32
2024-04-16T08:15:41.067Z,9.32
2024-04-16T08:16:41.831Z,9.42
2024-04-16T08:17:41.269Z,9.56
2024-04-16T08:18:41.060Z,9.61
2024-04-16T08:19:41.119Z,9.64
2024-04-16T08:20:41.001Z,9.67
2024-04-16T08:21:40.984Z,9.76
2024-04-16T08:22:41.078Z,9.76
2024-04-16T08:23:40.981Z,9.68
2024-04-16T08:24:40.956Z,9.68
2024-04-16T08:25:41.111Z,9.67
2024-04-16T08:26:40.965Z,9.71
2024-04-16T08:27:40.928Z,9.75
2024-04-16T08:28:40.990Z,9.76
2024-04-16T08:29:40.903Z,9.78
2024-04-16T08:30:40.895Z,9.71
2024-04-16T08:31:40.955Z,9.58
2024-04-16T08:32:40.934Z,9.64
2024-04-16T08:33:41.023Z,9.61
2024-04-16T08:34:41.019Z,9.63
2024-04-16T08:35:40.845Z,9.63
2024-04-16T08:36:40.824Z,9.63
2024-04-16T08:37:40.903Z,9.63
2024-04-16T08:38:40.864Z,9.68
2024-04-16T08:39:40.961Z,9.71
2024-04-16T08:40:40.894Z,9.71
2024-04-16T08:41:40.797Z,9.70
2024-04-16T08:42:40.791Z,9.58
2024-04-16T08:43:40.807Z,9.56
2024-04-16T08:44:40.788Z,9.50
2024-04-16T08:45:40.719Z,9.53
2024-04-16T08:46:40.795Z,9.60
2024-04-16T08:47:40.758Z,9.56
2024-04-16T08:48:40.705Z,9.58
2024-04-16T08:49:43.234Z,9.60
2024-04-16T08:50:40.681Z,9.58
2024-04-16T08:51:40.668Z,9.52
2024-04-16T08:52:40.882Z,9.52
2024-04-16T08:53:40.664Z,9.52
2024-04-16T08:54:40.617Z,9.50
2024-04-16T08:56:40.593Z,9.57
2024-04-16T08:57:40.596Z,9.53
2024-04-16T08:58:40.671Z,9.63
2024-04-16T08:59:40.556Z,9.71
2024-04-16T09:00:40.570Z,9.78
2024-04-16T09:01:40.599Z,9.85
2024-04-16T09:02:40.589Z,9.89
2024-04-16T09:03:40.521Z,9.96
2024-04-16T09:04:40.682Z,9.97
2024-04-16T09:05:40.493Z,9.93
2024-04-16T09:06:40.467Z,9.94
2024-04-16T09:07:40.555Z,9.88
2024-04-16T09:08:40.472Z,9.81
2024-04-16T09:09:40.470Z,9.73
2024-04-16T09:10:40.520Z,9.63
2024-04-16T09:11:41.237Z,9.52
2024-04-16T09:12:40.430Z,9.48
2024-04-16T09:13:40.490Z,9.46
2024-04-16T09:14:40.402Z,9.45
2024-04-16T09:15:40.403Z,9.43
2024-04-16T09:16:40.505Z,9.39
2024-04-16T09:17:40.438Z,9.34
2024-04-16T09:18:40.372Z,9.28
2024-04-16T09:19:40.410Z,9.25
2024-04-16T09:20:40.325Z,9.25
2024-04-16T09:21:40.319Z,9.27
2024-04-16T09:22:40.389Z,9.28
2024-04-16T09:23:40.345Z,9.30
2024-04-16T09:24:40.282Z,9.21
2024-04-16T09:25:40.522Z,9.09
2024-04-16T09:26:40.282Z,8.97
2024-04-16T09:27:40.949Z,8.91
2024-04-16T09:28:40.309Z,8.87
2024-04-16T09:29:40.242Z,8.78
2024-04-16T09:30:40.235Z,8.78
2024-04-16T09:31:40.370Z,8.78
2024-04-16T09:32:41.893Z,8.75
2024-04-16T09:33:40.302Z,8.65
2024-04-16T09:34:40.213Z,8.58
2024-04-16T09:35:40.221Z,8.53
2024-04-16T09:36:40.180Z,8.53
2024-04-16T09:37:41.987Z,8.51
2024-04-16T09:38:40.126Z,8.51
2024-04-16T09:39:40.122Z,8.53
2024-04-16T09:40:40.184Z,8.51
2024-04-16T09:41:40.092Z,8.50
2024-04-16T09:42:40.120Z,8.42
2024-04-16T09:43:40.162Z,8.36
2024-04-16T09:44:40.090Z,8.35
2024-04-16T09:45:40.046Z,8.29
2024-04-16T09:46:40.231Z,8.28
2024-04-16T09:47:40.071Z,8.25
2024-04-16T09:48:40.014Z,8.20
2024-04-16T09:49:50.424Z,8.18
2024-04-16T09:50:49.885Z,8.18
2024-04-16T09:51:40.994Z,8.17
2024-04-16T09:52:40.073Z,8.12
2024-04-16T09:53:39.959Z,8.08
2024-04-16T09:54:39.950Z,8.02
2024-04-16T09:55:40.054Z,7.94
2024-04-16T09:56:39.924Z,7.92
2024-04-16T09:57:39.918Z,7.87
2024-04-16T09:58:39.943Z,7.85
2024-04-16T09:59:39.924Z,7.85
2024-04-16T10:00:39.959Z,7.85
2024-04-16T10:01:39.917Z,7.81
2024-04-16T10:02:39.986Z,7.79
2024-04-16T10:03:39.862Z,7.74
2024-04-16T10:04:39.846Z,7.74
2024-04-16T10:05:39.841Z,7.69
2024-04-16T10:06:39.808Z,7.63
2024-04-16T10:07:39.833Z,7.62
2024-04-16T10:08:39.803Z,7.62
2024-04-16T10:09:39.778Z,7.58
2024-04-16T10:10:39.889Z,7.59
2024-04-16T10:11:39.825Z,7.60
2024-04-16T10:12:39.740Z,7.60
2024-04-16T10:13:40.485Z,7.62
2024-04-16T10:14:39.767Z,7.62
2024-04-16T10:15:39.729Z,7.62
2024-04-16T10:16:39.804Z,7.60
2024-04-16T10:17:39.818Z,7.63
2024-04-16T10:18:39.673Z,7.59
2024-04-16T10:19:39.870Z,7.58
2024-04-16T10:20:39.683Z,7.55
2024-04-16T10:21:39.679Z,7.52
2024-04-16T10:22:48.217Z,7.49
2024-04-16T10:23:40.641Z,7.44
2024-04-16T10:24:39.611Z,7.41
2024-04-16T10:25:39.652Z,7.35
2024-04-16T10:26:40.247Z,7.37
2024-04-16T10:27:39.579Z,7.38
2024-04-16T10:28:39.681Z,7.38
2024-04-16T10:29:39.575Z,7.38
2024-04-16T10:30:39.544Z,7.40
2024-04-16T10:31:39.812Z,7.41
2024-04-16T10:32:39.643Z,7.32
2024-04-16T10:33:39.688Z,7.31
2024-04-16T10:34:39.676Z,7.29
2024-04-16T10:35:39.542Z,7.29
2024-04-16T10:36:39.504Z,7.27
2024-04-16T10:37:39.517Z,7.29
2024-04-16T10:38:39.618Z,7.32
2024-04-16T10:39:39.447Z,7.24
2024-04-16T10:40:39.540Z,7.26
2024-04-16T10:41:39.413Z,7.26
2024-04-16T10:42:39.408Z,7.23
2024-04-16T10:43:39.503Z,7.22
2024-04-16T10:44:39.391Z,7.20
2024-04-16T10:45:39.397Z,7.13
2024-04-16T10:46:39.460Z,7.08
2024-04-16T10:47:39.397Z,7.07
2024-04-16T10:48:39.347Z,7.07
2024-04-16T10:49:41.205Z,7.05
2024-04-16T10:50:39.347Z,7.07
2024-04-16T10:51:39.342Z,7.08
2024-04-16T10:52:39.341Z,7.08
2024-04-16T10:53:39.303Z,7.08
2024-04-16T10:54:40.954Z,7.13
2024-04-16T10:55:39.316Z,7.12
2024-04-16T10:56:39.290Z,7.16
2024-04-16T10:57:39.262Z,7.16
2024-04-16T10:58:39.373Z,7.15
2024-04-16T10:59:39.222Z,7.17
2024-04-16T11:00:39.255Z,7.23
2024-04-16T11:01:39.243Z,7.27
2024-04-16T11:02:39.207Z,7.29
2024-04-16T11:03:39.321Z,7.32
2024-04-16T11:04:39.266Z,7.37
2024-04-16T11:05:39.159Z,7.40
2024-04-16T11:06:39.179Z,7.42
2024-04-16T11:07:39.276Z,7.49
2024-04-16T11:08:39.148Z,7.45
2024-04-16T11:09:39.111Z,7.44
2024-04-16T11:10:39.141Z,7.42
2024-04-16T11:11:39.150Z,7.45
2024-04-16T11:12:39.139Z,7.50
2024-04-16T11:13:39.189Z,7.55
2024-04-16T11:14:39.070Z,7.59
2024-04-16T11:15:39.077Z,7.59
2024-04-16T11:16:39.299Z,7.58
2024-04-16T11:17:39.074Z,7.62
2024-04-16T11:18:39.041Z,7.69
2024-04-16T11:19:40.044Z,7.75
2024-04-16T11:20:39.020Z,7.75
2024-04-16T11:21:38.962Z,7.82
2024-04-16T11:22:39.100Z,7.87
2024-04-16T11:23:38.942Z,7.94
2024-04-16T11:24:38.967Z,8.02
2024-04-16T11:25:38.955Z,8.11
2024-04-16T11:26:39.087Z,8.18
2024-04-16T11:27:38.941Z,8.20
2024-04-16T11:28:38.988Z,8.20
2024-04-16T11:29:38.889Z,8.20
2024-04-16T11:30:38.934Z,8.21
2024-04-16T11:31:38.941Z,8.14
2024-04-16T11:32:39.017Z,8.10
2024-04-16T11:33:39.000Z,8.12
2024-04-16T11:34:38.934Z,8.10
2024-04-16T11:35:38.820Z,8.08
2024-04-16T11:36:39.466Z,8.08
2024-04-16T11:37:42.117Z,8.11
2024-04-16T11:38:40.787Z,8.14
2024-04-16T11:39:38.785Z,8.20
2024-04-16T11:40:39.617Z,8.20
2024-04-16T11:41:38.757Z,8.25
2024-04-16T11:42:38.756Z,8.28
2024-04-16T11:43:39.842Z,8.33
2024-04-16T11:44:38.728Z,8.33
2024-04-16T11:45:38.692Z,8.35
2024-04-16T11:46:38.724Z,8.40
2024-04-16T11:47:38.739Z,8.40
2024-04-16T11:48:38.739Z,8.40
2024-04-16T11:49:38.799Z,8.37
2024-04-16T11:50:38.659Z,8.40
2024-04-16T11:51:38.642Z,8.44
2024-04-16T11:52:38.705Z,8.45
2024-04-16T11:53:38.769Z,8.50
2024-04-16T11:54:38.682Z,8.54
2024-04-16T11:55:38.731Z,8.57
2024-04-16T11:56:38.606Z,8.60
2024-04-16T11:57:39.398Z,8.66
2024-04-16T11:58:38.641Z,8.65
2024-04-16T11:59:38.598Z,8.63
2024-04-16T12:00:38.544Z,8.62
2024-04-16T12:01:38.668Z,8.60
2024-04-16T12:02:38.552Z,8.58
2024-04-16T12:03:38.544Z,8.57
2024-04-16T12:04:38.594Z,8.54
2024-04-16T12:05:38.623Z,8.53
2024-04-16T12:06:38.487Z,8.53
2024-04-16T12:07:38.599Z,8.54
2024-04-16T12:08:38.466Z,8.55
2024-04-16T12:09:38.481Z,8.54
2024-04-16T12:10:38.447Z,8.57
2024-04-16T12:11:38.581Z,8.63
2024-04-16T12:12:38.406Z,8.66
2024-04-16T12:13:38.426Z,8.71
2024-04-16T12:14:39.038Z,8.73
2024-04-16T12:15:38.387Z,8.79
2024-04-16T12:16:38.391Z,8.78
2024-04-16T12:17:38.526Z,8.83
2024-04-16T12:18:38.358Z,8.87
2024-04-16T12:19:38.420Z,8.93
2024-04-16T12:20:38.339Z,8.96
2024-04-16T12:21:38.321Z,8.99
2024-04-16T12:22:38.444Z,9.01
2024-04-16T12:23:38.314Z,9.01
2024-04-16T12:24:38.323Z,8.97
2024-04-16T12:25:38.332Z,8.97
2024-04-16T12:26:38.250Z,8.99
2024-04-16T12:27:38.279Z,8.97
2024-04-16T12:28:38.306Z,8.94
2024-04-16T12:29:38.225Z,8.97
2024-04-16T12:30:38.230Z,8.96
2024-04-16T12:31:38.322Z,8.96
2024-04-16T12:32:38.749Z,8.99
2024-04-16T12:33:38.371Z,9.01
2024-04-16T12:34:38.188Z,9.05
2024-04-16T12:35:38.198Z,9.09
2024-04-16T12:36:38.156Z,9.10
2024-04-16T12:37:38.235Z,9.13
2024-04-16T12:38:38.137Z,9.16
2024-04-16T12:39:38.323Z,9.15
2024-04-16T12:40:38.295Z,9.13
2024-04-16T12:41:40.067Z,9.16
2024-04-16T12:42:38.326Z,9.13
2024-04-16T12:43:38.091Z,9.12
2024-04-16T12:44:38.270Z,9.09
2024-04-16T12:45:38.103Z,8.97
2024-04-16T12:46:38.882Z,8.93
2024-04-16T12:47:38.117Z,8.86
2024-04-16T12:48:38.162Z,8.81
2024-04-16T12:49:38.018Z,8.78
2024-04-16T12:50:37.992Z,8.76
2024-04-16T12:51:37.997Z,8.75
2024-04-16T12:52:38.067Z,8.69
2024-04-16T12:53:37.959Z,8.69
2024-04-16T12:54:37.958Z,8.69
2024-04-16T12:55:38.025Z,8.69
2024-04-16T12:56:37.965Z,8.71
2024-04-16T12:57:37.946Z,8.71
2024-04-16T12:58:37.945Z,8.69
2024-04-16T12:59:37.885Z,8.68
2024-04-16T13:00:37.933Z,8.57
2024-04-16T13:01:37.974Z,8.55
2024-04-16T13:02:37.898Z,8.53
2024-04-16T13:03:37.911Z,8.54
2024-04-16T13:04:37.853Z,8.60
2024-04-16T13:05:37.806Z,8.68
2024-04-16T13:06:37.869Z,8.76
2024-04-16T13:07:37.846Z,8.79
2024-04-16T13:08:37.789Z,8.84
2024-04-16T13:09:37.785Z,8.88
2024-04-16T13:10:37.831Z,8.94
2024-04-16T13:11:37.829Z,8.96
2024-04-16T13:12:37.783Z,9.02
2024-04-16T13:13:37.784Z,9.06
2024-04-16T13:14:37.719Z,9.05
2024-04-16T13:15:37.696Z,9.04
2024-04-16T13:16:37.766Z,9.01
2024-04-16T13:17:37.748Z,8.96
2024-04-16T13:18:37.764Z,9.01
2024-04-16T13:19:38.091Z,9.05